Strona główna
METAR-TAF:

METAR-TAF

Lotnisko :

RAF

Spadeadam, Anglia

Szerokość geograficzna: 55-03N, Długość geograficzna: 002-33W, wysokość: 325 m

Aktualna obserwacja pogody

Raport powstał 44 minut temu, godzina 01:50 UTC
Wiatr 37 kt od zachodnio-południowy zachód w porywach dochodzący do 54 kt
Temperatura 4°C
Wilgotność 75%
Ciśnienie 985 hPa
Widzialność 10 km lub więcej

METAR: EGOM 170150Z AUTO 24037G54KT 9999 BKN022/// 04/00 Q0985 RERA

czas: 02:34 (02:34 UTC)


TAF: brakujący

Obserwacja i prognoza pogody dla ponad 4000 lotnisk (raport METAR i TAF).

Dostępne stacje oznaczono żółtymi i czerwonymi punktami na mapie.

Najedź kursorem aby zobaczyć nazwę stacji.

Kliknij aby zobaczyć obserwacje i prognozy pogody.

Aby zmienić mapę: kliknij na zielony przycisk z czarnym krzyżykiem, aby powiększyć; na zielony przycisk z myślnikiem, aby pomniejszyć; na zielone strzałki, aby przejść do map sąsiednich.


METAR-TAF: